Time;durP1;ratioP1;P1;durP2;ratioP2;P2;SDS_P1;SDS_P2;PMS_P1;PMS_P2;Temp;Humidity;BMP_temperature;BMP_pressure;BME280_temperature;BME280_humidity;BME280_pressure;Samples;Min_cycle;Max_cycle;Signal;HPM_P1;HPM_P2
2024/01/30 00:02:02;;;;;;;17.38;4.72;;;;;;;2.77;75.21;102603.47;5069296;28;20080;-74
2024/01/30 00:04:29;;;;;;;16.45;5.40;;;;;;;2.76;74.88;102599.13;5068794;28;20128;-75
2024/01/30 00:06:56;;;;;;;18.65;5.93;;;;;;;2.75;74.85;102594.75;5070103;28;20139;-74
2024/01/30 00:09:23;;;;;;;20.48;6.07;;;;;;;2.73;74.93;102592.13;5068502;28;20076;-73
2024/01/30 00:11:51;;;;;;;23.00;5.97;;;;;;;2.66;74.99;102586.66;5068706;28;20486;-74
2024/01/30 00:14:18;;;;;;;14.55;4.85;;;;;;;2.67;74.92;102589.31;5068114;28;20110;-74
2024/01/30 00:16:45;;;;;;;14.18;4.93;;;;;;;2.67;74.93;102591.91;5068438;28;20047;-74
2024/01/30 00:19:12;;;;;;;18.20;5.00;;;;;;;2.67;74.95;102589.31;5069989;28;20072;-82
2024/01/30 00:21:39;;;;;;;17.50;5.43;;;;;;;2.66;74.88;102584.06;5072779;28;20041;-82
2024/01/30 00:24:06;;;;;;;18.92;5.47;;;;;;;2.64;74.96;102581.41;5073567;28;20487;-82
2024/01/30 00:26:33;;;;;;;21.60;6.00;;;;;;;2.64;75.05;102583.13;5072148;28;20087;-81
2024/01/30 00:29:02;;;;;;;15.90;4.93;;;;;;;2.62;74.95;102584.78;5072089;28;20080;-75
2024/01/30 00:31:29;;;;;;;17.00;4.43;;;;;;;2.59;74.81;102582.97;5066539;28;20127;-74
2024/01/30 00:33:56;;;;;;;14.77;4.55;;;;;;;2.58;74.88;102581.16;5069520;28;20044;-74
2024/01/30 00:36:23;;;;;;;16.88;4.85;;;;;;;2.56;74.79;102583.72;5066472;28;20139;-75
2024/01/30 00:38:50;;;;;;;11.65;4.25;;;;;;;2.54;74.65;102593.09;5068081;28;20137;-74
2024/01/30 00:41:19;;;;;;;21.63;3.97;;;;;;;2.51;74.72;102594.69;5066895;28;20076;-75
2024/01/30 00:43:46;;;;;;;14.57;4.18;;;;;;;2.48;74.60;102592.00;5069266;28;20045;-74
2024/01/30 00:46:14;;;;;;;15.02;5.15;;;;;;;2.42;74.64;102587.47;5067299;28;20123;-76
2024/01/30 00:48:41;;;;;;;16.63;4.22;;;;;;;2.44;74.68;102601.28;5067624;28;20533;-75
2024/01/30 00:51:09;;;;;;;16.60;4.25;;;;;;;2.42;74.57;102608.13;5068095;28;20102;-75
2024/01/30 00:53:36;;;;;;;15.40;5.13;;;;;;;2.37;74.50;102600.19;5066466;28;20127;-75
2024/01/30 00:56:03;;;;;;;14.10;4.60;;;;;;;2.35;74.66;102601.81;5067654;28;20076;-75
2024/01/30 00:58:30;;;;;;;13.75;4.05;;;;;;;2.33;74.46;102598.31;5065440;28;20037;-75
2024/01/30 01:00:57;;;;;;;15.48;5.22;;;;;;;2.31;74.44;102588.72;5068610;28;20064;-75
2024/01/30 01:03:25;;;;;;;17.98;4.80;;;;;;;2.28;74.44;102594.66;5066763;28;20514;-74
2024/01/30 01:05:52;;;;;;;19.25;5.13;;;;;;;2.27;74.32;102592.91;5067583;28;20190;-74
2024/01/30 01:08:20;;;;;;;20.05;6.75;;;;;;;2.25;74.51;102593.66;5067767;28;20044;-75
2024/01/30 01:10:47;;;;;;;23.83;6.22;;;;;;;2.21;74.71;102590.03;5065736;28;20076;-75
2024/01/30 01:13:14;;;;;;;18.40;5.80;;;;;;;2.21;74.29;102596.91;5067670;28;20540;-75
2024/01/30 01:15:40;;;;;;;18.65;5.65;;;;;;;2.17;74.68;102585.56;5064357;28;20076;-75
2024/01/30 01:18:07;;;;;;;19.02;5.43;;;;;;;2.16;74.72;102589.00;5063207;28;20080;-74
2024/01/30 01:20:37;;;;;;;18.63;5.22;;;;;;;2.10;74.55;102589.63;5057899;28;20404;-76
2024/01/30 01:23:04;;;;;;;16.92;5.45;;;;;;;2.10;74.40;102592.19;5057048;28;20498;-75
2024/01/30 01:25:31;;;;;;;20.48;5.20;;;;;;;2.08;74.47;102593.81;5066552;28;20079;-75
2024/01/30 01:28:01;;;;;;;16.65;4.85;;;;;;;2.06;74.31;102592.00;5063430;28;20123;-75
2024/01/30 01:30:29;;;;;;;19.92;5.47;;;;;;;1.98;74.48;102583.06;5069412;28;20044;-81
2024/01/30 01:32:57;;;;;;;18.73;4.85;;;;;;;2.01;74.44;102594.38;5068765;28;20036;-81
2024/01/30 01:35:25;;;;;;;16.92;4.82;;;;;;;1.99;74.26;102597.72;5062703;28;20071;-82
2024/01/30 01:37:55;;;;;;;22.17;5.70;;;;;;;1.97;74.44;102589.03;5065271;28;20178;-81
2024/01/30 01:40:23;;;;;;;18.63;5.68;;;;;;;1.94;74.25;102589.78;5060720;28;20045;-75
2024/01/30 01:42:52;;;;;;;17.58;5.80;;;;;;;1.91;74.35;102579.34;5067493;28;20084;-76
2024/01/30 01:45:19;;;;;;;16.60;5.00;;;;;;;1.89;74.58;102589.59;5055774;28;20458;-75
2024/01/30 01:47:49;;;;;;;12.88;3.90;;;;;;;1.88;74.49;102589.53;5064251;28;20074;-76
2024/01/30 01:50:18;;;;;;;15.90;4.63;;;;;;;1.83;74.38;102583.28;5060095;28;20053;-75
2024/01/30 01:52:47;;;;;;;18.73;4.45;;;;;;;1.82;74.48;102595.31;5062170;28;20052;-76
2024/01/30 01:55:17;;;;;;;16.48;5.13;;;;;;;1.80;74.39;102589.22;5065067;28;20076;-76
2024/01/30 01:57:44;;;;;;;16.65;6.00;;;;;;;1.78;74.65;102593.41;5065375;28;20051;-76
2024/01/30 02:00:13;;;;;;;12.88;5.47;;;;;;;1.75;74.43;102605.31;5068355;28;20076;-75
2024/01/30 02:02:40;;;;;;;15.32;5.25;;;;;;;1.72;74.47;102585.41;5065842;28;20048;-75
2024/01/30 02:05:07;;;;;;;15.80;5.63;;;;;;;1.70;74.66;102580.19;5066686;28;20127;-75
2024/01/30 02:07:34;;;;;;;16.48;4.90;;;;;;;1.68;74.66;102578.38;5063696;28;20171;-74
2024/01/30 02:10:01;;;;;;;15.07;5.10;;;;;;;1.66;74.47;102585.16;5068866;28;20159;-75
2024/01/30 02:12:30;;;;;;;14.48;4.70;;;;;;;1.62;74.46;102583.28;5063050;28;20515;-76
2024/01/30 02:14:57;;;;;;;18.13;4.55;;;;;;;1.59;74.26;102577.94;5065747;28;20072;-75
2024/01/30 02:17:25;;;;;;;13.45;5.03;;;;;;;1.58;74.34;102582.22;5063278;28;20083;-75
2024/01/30 02:19:52;;;;;;;14.95;3.67;;;;;;;1.56;74.14;102577.81;5066449;28;20083;-75
2024/01/30 02:22:22;;;;;;;14.50;5.57;;;;;;;1.52;74.45;102584.56;5067533;28;20080;-75
2024/01/30 02:24:49;;;;;;;12.63;5.18;;;;;;;1.44;74.68;102568.72;5064286;28;20199;-75
2024/01/30 02:27:16;;;;;;;15.55;4.75;;;;;;;1.42;74.30;102567.81;5066727;28;20160;-75
2024/01/30 02:29:43;;;;;;;19.15;4.85;;;;;;;1.44;74.37;102576.47;5066551;28;20080;-75
2024/01/30 02:32:10;;;;;;;13.10;4.93;;;;;;;1.42;74.42;102575.53;5065467;28;20068;-75
2024/01/30 02:34:37;;;;;;;16.23;5.55;;;;;;;1.37;74.51;102571.88;5065388;28;20087;-75
2024/01/30 02:37:04;;;;;;;28.15;6.40;;;;;;;1.37;74.35;102579.63;5065959;28;20076;-75
2024/01/30 02:39:32;;;;;;;13.02;4.95;;;;;;;1.35;74.63;102581.22;5067672;28;20503;-79
2024/01/30 02:41:59;;;;;;;14.60;4.28;;;;;;;1.32;74.35;102577.66;5071847;28;20080;-79
2024/01/30 02:44:26;;;;;;;23.50;6.43;;;;;;;1.30;74.45;102579.25;5069720;28;20399;-79
2024/01/30 02:46:55;;;;;;;24.02;6.47;;;;;;;1.28;74.25;102580.88;5070589;28;20079;-79
2024/01/30 02:49:21;;;;;;;25.55;6.00;;;;;;;1.24;74.20;102579.88;5069146;28;20483;-79
2024/01/30 02:51:48;;;;;;;31.13;6.35;;;;;;;1.22;74.50;102571.19;5068192;28;20471;-79
2024/01/30 02:54:15;;;;;;;30.05;5.68;;;;;;;1.16;74.54;102566.66;5068692;28;20087;-79
2024/01/30 02:56:44;;;;;;;25.65;6.15;;;;;;;1.19;74.57;102576.19;5062864;28;20075;-79
2024/01/30 02:59:11;;;;;;;24.27;6.20;;;;;;;1.16;74.42;102573.50;5071092;28;20076;-79
2024/01/30 03:01:44;;;;;;;27.90;5.82;;;;;;;1.15;74.57;102575.19;5072604;28;20071;-79
2024/01/30 03:04:11;;;;;;;32.92;6.72;;;;;;;1.11;74.27;102562.13;5073165;28;20072;-79
2024/01/30 03:06:38;;;;;;;26.70;6.05;;;;;;;1.09;74.60;102568.88;5073086;28;20045;-78
2024/01/30 03:09:05;;;;;;;22.88;5.10;;;;;;;1.07;74.28;102576.53;5074630;28;20049;-79
2024/01/30 03:11:32;;;;;;;37.05;6.78;;;;;;;1.06;74.08;102569.63;5073318;28;20087;-79
2024/01/30 03:14:00;;;;;;;32.13;5.95;;;;;;;1.05;74.52;102572.13;5074652;28;20052;-79
2024/01/30 03:16:27;;;;;;;24.25;5.78;;;;;;;1.02;74.59;102578.03;5073210;28;20083;-79
2024/01/30 03:18:54;;;;;;;32.53;7.45;;;;;;;1.00;74.73;102577.97;5071753;28;20079;-79
2024/01/30 03:21:21;;;;;;;34.90;6.88;;;;;;;0.99;74.63;102583.03;5072841;28;20088;-78
2024/01/30 03:23:48;;;;;;;24.98;6.97;;;;;;;0.96;74.96;102578.66;5073617;28;20098;-79
2024/01/30 03:26:16;;;;;;;27.95;7.30;;;;;;;0.92;74.46;102587.03;5072070;28;20079;-79
2024/01/30 03:28:42;;;;;;;23.63;6.07;;;;;;;0.91;74.65;102598.16;5071301;28;20537;-79
2024/01/30 03:31:11;;;;;;;25.98;6.53;;;;;;;0.91;74.49;102595.59;5073828;28;20568;-79
2024/01/30 03:33:38;;;;;;;32.70;6.45;;;;;;;0.90;74.76;102598.97;5069505;28;20076;-79
2024/01/30 03:36:06;;;;;;;35.92;6.40;;;;;;;0.88;74.68;102595.44;5071253;28;20541;-79
2024/01/30 03:38:33;;;;;;;26.92;6.82;;;;;;;0.75;74.48;102567.34;5072811;28;20882;-79
2024/01/30 03:41:01;;;;;;;20.83;5.60;;;;;;;0.85;75.05;102595.31;5074986;28;20071;-79
2024/01/30 03:43:28;;;;;;;26.80;6.40;;;;;;;0.78;74.35;102586.41;5073046;28;20076;-78
2024/01/30 03:45:55;;;;;;;24.15;6.50;;;;;;;0.81;75.02;102593.38;5069321;28;20075;-79
2024/01/30 03:48:23;;;;;;;31.00;6.10;;;;;;;0.79;74.27;102587.28;5072989;28;20049;-76
2024/01/30 03:50:50;;;;;;;18.65;6.15;;;;;;;0.77;74.82;102594.06;5070080;28;20531;-75
2024/01/30 03:53:17;;;;;;;32.58;7.07;;;;;;;0.75;74.44;102591.41;5067420;28;20079;-75
2024/01/30 03:55:44;;;;;;;24.60;5.22;;;;;;;0.75;74.86;102596.56;5067173;28;20072;-75
2024/01/30 03:58:11;;;;;;;20.23;5.72;;;;;;;0.64;74.43;102584.00;5066799;28;20642;-72
2024/01/30 04:00:38;;;;;;;20.25;5.65;;;;;;;0.72;75.09;102603.28;5069590;28;20076;-74
2024/01/30 04:03:05;;;;;;;22.23;6.78;;;;;;;0.70;74.85;102602.31;5069525;28;20502;-75
2024/01/30 04:05:34;;;;;;;27.38;6.75;;;;;;;0.69;74.97;102600.56;5068290;28;20780;-75
2024/01/30 04:08:01;;;;;;;19.60;5.82;;;;;;;0.67;74.83;102604.75;5069645;28;20522;-75
2024/01/30 04:10:28;;;;;;;23.00;5.45;;;;;;;0.66;74.64;102613.28;5068405;28;20068;-75
2024/01/30 04:12:55;;;;;;;21.63;6.28;;;;;;;0.64;74.62;102609.75;5069321;28;20075;-75
2024/01/30 04:15:22;;;;;;;23.52;7.50;;;;;;;0.62;75.17;102611.38;5067871;28;20040;-74
2024/01/30 04:17:49;;;;;;;20.52;5.63;;;;;;;0.58;74.47;102606.06;5069577;28;20459;-75
2024/01/30 04:20:17;;;;;;;14.50;4.72;;;;;;;0.60;74.73;102613.88;5068778;28;20521;-75
2024/01/30 04:22:46;;;;;;;24.67;6.63;;;;;;;0.57;75.13;102606.00;5066122;28;20115;-74
2024/01/30 04:25:13;;;;;;;21.45;5.53;;;;;;;0.57;74.72;102617.19;5068278;28;20083;-75
2024/01/30 04:27:40;;;;;;;19.73;5.88;;;;;;;0.57;75.07;102617.19;5068240;28;20085;-74
2024/01/30 04:30:08;;;;;;;14.57;4.68;;;;;;;0.55;74.83;102611.06;5069142;28;20133;-74
2024/01/30 04:32:36;;;;;;;13.60;4.10;;;;;;;0.55;75.32;102611.06;5065460;28;20084;-75
2024/01/30 04:35:03;;;;;;;14.85;4.18;;;;;;;0.55;75.10;102612.78;5069500;28;20135;-75
2024/01/30 04:37:30;;;;;;;17.58;5.10;;;;;;;0.55;74.94;102617.94;5067645;28;20502;-75
2024/01/30 04:39:59;;;;;;;17.83;4.43;;;;;;;0.54;75.73;102611.03;5066046;28;20072;-74
2024/01/30 04:42:26;;;;;;;18.80;4.40;;;;;;;0.53;74.98;102615.25;5064903;28;20080;-75
2024/01/30 04:44:53;;;;;;;14.27;4.10;;;;;;;0.53;75.62;102614.38;5067233;28;20095;-74
2024/01/30 04:47:20;;;;;;;12.32;3.80;;;;;;;0.52;75.56;102616.09;5068840;28;20118;-74
2024/01/30 04:49:46;;;;;;;11.98;3.67;;;;;;;0.51;75.56;102611.75;5067340;28;20083;-74
2024/01/30 04:52:14;;;;;;;12.07;3.33;;;;;;;0.51;75.13;102614.31;5068302;28;20078;-74
2024/01/30 04:54:41;;;;;;;15.00;3.55;;;;;;;0.51;75.52;102613.44;5068001;28;20113;-74
2024/01/30 04:57:12;;;;;;;10.80;3.22;;;;;;;0.51;75.25;102605.72;5067876;28;20072;-75
2024/01/30 04:59:39;;;;;;;13.43;3.90;;;;;;;0.49;75.82;102599.59;5070518;28;20831;-79
2024/01/30 05:02:06;;;;;;;17.55;5.00;;;;;;;0.48;75.35;102597.81;5071971;28;20064;-80
2024/01/30 05:04:33;;;;;;;13.48;4.05;;;;;;;0.48;75.50;102605.53;5069677;28;20080;-78
2024/01/30 05:07:00;;;;;;;18.27;5.07;;;;;;;0.47;75.80;102596.94;5072217;28;20087;-79
2024/01/30 05:09:28;;;;;;;17.80;4.95;;;;;;;0.45;75.33;102596.00;5071350;28;20080;-79
2024/01/30 05:11:55;;;;;;;18.90;4.57;;;;;;;0.46;75.60;102599.47;5071605;28;20419;-80
2024/01/30 05:14:23;;;;;;;15.45;4.45;;;;;;;0.43;75.42;102600.19;5073162;28;20467;-80
2024/01/30 05:16:50;;;;;;;16.17;3.80;;;;;;;0.44;75.19;102601.06;5071150;28;20071;-79
2024/01/30 05:19:18;;;;;;;14.65;5.40;;;;;;;0.42;75.75;102598.41;5068824;28;20087;-79
2024/01/30 05:21:45;;;;;;;10.05;4.22;;;;;;;0.42;75.52;102593.25;5069418;28;20119;-78
2024/01/30 05:24:12;;;;;;;10.32;4.47;;;;;;;0.41;75.66;102596.66;5072280;28;20078;-78
2024/01/30 05:26:39;;;;;;;13.05;4.90;;;;;;;0.42;75.66;102597.53;5070385;28;20087;-78
2024/01/30 05:29:07;;;;;;;14.45;5.25;;;;;;;0.41;75.51;102601.81;5072000;28;20080;-78
2024/01/30 05:31:35;;;;;;;12.00;4.20;;;;;;;0.39;75.50;102595.69;5069833;28;20044;-78
2024/01/30 05:34:02;;;;;;;12.88;3.75;;;;;;;0.40;75.57;102601.75;5068940;28;20079;-78
2024/01/30 05:36:29;;;;;;;10.68;4.35;;;;;;;0.40;75.83;102596.59;5067711;28;20084;-78
2024/01/30 05:38:57;;;;;;;11.77;4.50;;;;;;;0.39;75.31;102597.38;5071407;28;20190;-78
2024/01/30 05:41:24;;;;;;;16.83;3.80;;;;;;;0.39;75.26;102608.56;5067179;28;20084;-78
2024/01/30 05:43:51;;;;;;;8.60;4.07;;;;;;;0.39;75.55;102606.00;5070963;28;20076;-78
2024/01/30 05:46:18;;;;;;;13.48;4.28;;;;;;;0.37;75.20;102610.22;5070803;28;20080;-78
2024/01/30 05:48:46;;;;;;;13.63;4.43;;;;;;;0.38;75.32;102611.97;5070778;28;20041;-78
2024/01/30 05:51:13;;;;;;;8.35;4.05;;;;;;;0.37;75.81;102609.28;5069081;28;20106;-78
2024/01/30 05:53:40;;;;;;;13.95;5.75;;;;;;;0.36;75.90;102598.13;5070575;28;20088;-78
2024/01/30 05:56:08;;;;;;;11.32;3.88;;;;;;;0.36;75.61;102598.13;5069867;28;20083;-77
2024/01/30 05:58:37;;;;;;;16.10;4.38;;;;;;;0.34;75.25;102598.06;5070073;28;20044;-78
2024/01/30 06:01:04;;;;;;;14.88;4.10;;;;;;;0.35;75.92;102596.38;5068040;28;20087;-78
2024/01/30 06:03:31;;;;;;;11.18;3.60;;;;;;;0.34;75.39;102600.63;5069397;28;20136;-79
2024/01/30 06:05:59;;;;;;;14.38;3.80;;;;;;;0.34;75.87;102595.50;5070969;28;20103;-78
2024/01/30 06:08:26;;;;;;;11.35;3.42;;;;;;;0.35;75.51;102596.38;5069073;28;20080;-74
2024/01/30 06:10:53;;;;;;;10.85;3.83;;;;;;;0.33;75.50;102593.69;5065378;28;20118;-76
2024/01/30 06:13:21;;;;;;;17.08;4.95;;;;;;;0.33;75.27;102600.53;5065721;28;20515;-73
2024/01/30 06:15:48;;;;;;;14.52;4.80;;;;;;;0.34;75.59;102598.06;5065808;28;20036;-73
2024/01/30 06:18:15;;;;;;;13.05;4.00;;;;;;;0.33;75.72;102601.44;5062910;28;20091;-77
2024/01/30 06:20:43;;;;;;;16.38;3.72;;;;;;;0.32;76.22;102602.25;5069697;28;20047;-78
2024/01/30 06:23:12;;;;;;;11.85;3.47;;;;;;;0.32;75.86;102597.09;5069733;28;20502;-77
2024/01/30 06:25:39;;;;;;;22.40;4.55;;;;;;;0.32;76.05;102596.22;5068022;28;20053;-77
2024/01/30 06:28:07;;;;;;;12.75;3.40;;;;;;;0.28;75.64;102589.13;5065271;28;20178;-77
2024/01/30 06:30:33;;;;;;;15.45;3.33;;;;;;;0.32;75.71;102601.38;5068206;28;20072;-77
2024/01/30 06:33:00;;;;;;;9.45;3.28;;;;;;;0.31;76.22;102599.63;5070275;28;20084;-77
2024/01/30 06:35:28;;;;;;;18.40;3.65;;;;;;;0.32;75.85;102598.78;5073518;28;20123;-77
2024/01/30 06:37:55;;;;;;;24.50;3.90;;;;;;;0.33;75.91;102598.84;5073531;28;20114;-78
2024/01/30 06:40:24;;;;;;;24.20;3.67;;;;;;;0.32;76.17;102597.09;5071830;28;20079;-77
2024/01/30 06:42:51;;;;;;;18.55;4.43;;;;;;;0.33;75.96;102597.97;5072871;28;20084;-77
2024/01/30 06:45:18;;;;;;;23.55;4.80;;;;;;;0.29;76.00;102585.78;5071360;28;20075;-77
2024/01/30 06:47:45;;;;;;;20.80;5.18;;;;;;;0.33;76.20;102588.53;5072696;28;20100;-76
2024/01/30 06:50:12;;;;;;;18.00;4.88;;;;;;;0.34;75.96;102594.59;5072419;28;20091;-78
2024/01/30 06:52:39;;;;;;;23.63;4.88;;;;;;;0.33;76.13;102591.13;5075066;28;20076;-79
2024/01/30 06:55:06;;;;;;;16.88;5.25;;;;;;;0.33;76.57;102593.69;5074142;28;20088;-78
2024/01/30 06:57:35;;;;;;;20.45;4.60;;;;;;;0.34;76.28;102602.34;5049572;28;20087;-78
2024/01/30 07:00:02;;;;;;;29.23;4.95;;;;;;;0.30;76.61;102587.53;5072027;28;20072;-78
2024/01/30 07:02:29;;;;;;;18.48;4.30;;;;;;;0.29;76.53;102594.38;5070221;28;20041;-81
2024/01/30 07:04:56;;;;;;;13.45;3.20;;;;;;;0.34;76.35;102600.63;5072974;28;20053;-79
2024/01/30 07:07:23;;;;;;;17.13;4.38;;;;;;;0.35;76.37;102597.25;5074834;28;20076;-78
2024/01/30 07:09:52;;;;;;;13.43;3.70;;;;;;;0.30;76.68;102593.56;5073236;28;20087;-78
2024/01/30 07:12:19;;;;;;;15.55;3.20;;;;;;;0.36;76.48;102600.69;5070760;28;20504;-78
2024/01/30 07:14:47;;;;;;;16.40;3.53;;;;;;;0.37;77.04;102599.00;5061991;28;20072;-78
2024/01/30 07:17:14;;;;;;;23.67;3.78;;;;;;;0.35;76.72;102602.38;5071357;28;20094;-78
2024/01/30 07:19:41;;;;;;;10.45;3.20;;;;;;;0.35;76.98;102597.25;5070120;28;20076;-76
2024/01/30 07:22:09;;;;;;;13.10;2.83;;;;;;;0.35;76.60;102598.94;5071166;28;20518;-75
2024/01/30 07:24:36;;;;;;;11.82;3.33;;;;;;;0.36;76.75;102598.13;5069482;28;20086;-75
2024/01/30 07:27:03;;;;;;;13.75;3.25;;;;;;;0.37;76.81;102593.84;5069631;28;20142;-75
2024/01/30 07:29:30;;;;;;;5.40;2.30;;;;;;;0.35;77.03;102591.22;5068302;28;20079;-74
2024/01/30 07:31:58;;;;;;;15.13;3.05;;;;;;;0.37;76.65;102583.53;5070082;28;20080;-75
2024/01/30 07:34:25;;;;;;;21.92;3.42;;;;;;;0.37;76.37;102579.31;5070050;28;20142;-76
2024/01/30 07:36:52;;;;;;;17.23;2.63;;;;;;;0.38;76.95;102569.88;5067656;28;20072;-75
2024/01/30 07:39:19;;;;;;;10.70;2.40;;;;;;;0.37;76.28;102574.16;5070864;28;20083;-75
2024/01/30 07:41:46;;;;;;;10.07;2.38;;;;;;;0.38;76.79;102569.88;5067209;28;20076;-74
2024/01/30 07:44:13;;;;;;;6.90;2.25;;;;;;;0.38;76.66;102578.47;5068801;28;20057;-75
2024/01/30 07:46:40;;;;;;;8.13;2.78;;;;;;;0.39;77.11;102581.94;5067396;28;20087;-75
2024/01/30 07:49:10;;;;;;;6.07;3.08;;;;;;;0.36;76.51;102577.53;5068588;28;20149;-74
2024/01/30 07:51:37;;;;;;;10.45;3.55;;;;;;;0.39;76.76;102582.81;5068390;28;20136;-74
2024/01/30 07:54:04;;;;;;;13.13;3.38;;;;;;;0.39;76.72;102593.13;5065871;28;20124;-75
2024/01/30 07:56:31;;;;;;;14.77;3.33;;;;;;;0.40;77.13;102596.59;5068563;28;20399;-74
2024/01/30 07:58:58;;;;;;;8.18;3.00;;;;;;;0.40;76.69;102582.03;5068761;28;20080;-74
2024/01/30 08:01:25;;;;;;;15.23;2.70;;;;;;;0.38;77.04;102575.91;5069918;28;20512;-75
2024/01/30 08:03:52;;;;;;;15.00;3.00;;;;;;;0.42;77.29;102576.94;5067866;28;20068;-74
2024/01/30 08:06:20;;;;;;;12.05;3.17;;;;;;;0.43;76.92;102578.72;5068717;28;20099;-74
2024/01/30 08:08:47;;;;;;;7.45;2.28;;;;;;;0.44;77.33;102581.34;5068363;28;20072;-74
2024/01/30 08:11:14;;;;;;;12.15;2.80;;;;;;;0.44;77.04;102583.03;5069847;28;20127;-74
2024/01/30 08:13:41;;;;;;;20.75;2.78;;;;;;;0.46;76.97;102574.59;5067188;28;20123;-74
2024/01/30 08:16:08;;;;;;;17.02;3.08;;;;;;;0.47;77.11;102578.91;5070126;28;20124;-74
2024/01/30 08:18:35;;;;;;;10.60;2.35;;;;;;;0.48;76.88;102567.81;5068488;28;20056;-74
2024/01/30 08:21:02;;;;;;;8.52;2.10;;;;;;;0.50;77.13;102571.34;5068778;28;20079;-74
2024/01/30 08:23:30;;;;;;;8.13;2.28;;;;;;;0.51;76.93;102560.25;5069662;28;20045;-74
2024/01/30 08:25:58;;;;;;;15.60;2.78;;;;;;;0.51;76.89;102555.09;5065782;28;20653;-75
2024/01/30 08:28:28;;;;;;;11.20;3.63;;;;;;;0.51;77.43;102555.09;5069397;28;20059;-77
2024/01/30 08:30:55;;;;;;;9.82;2.17;;;;;;;0.52;77.00;102543.97;5069448;28;20076;-77
2024/01/30 08:33:22;;;;;;;8.32;2.08;;;;;;;0.53;76.94;102550.88;5069291;28;20076;-77
2024/01/30 08:35:49;;;;;;;9.30;2.25;;;;;;;0.54;77.10;102544.94;5071402;28;20414;-77
2024/01/30 08:38:16;;;;;;;11.00;3.15;;;;;;;0.54;76.83;102542.34;5070754;28;20490;-78
2024/01/30 08:40:45;;;;;;;9.30;2.10;;;;;;;0.44;76.94;102522.13;5067582;28;20138;-76
2024/01/30 08:43:12;;;;;;;11.30;2.50;;;;;;;0.53;77.01;102534.53;5068394;28;21711;-76
2024/01/30 08:45:39;;;;;;;8.00;2.25;;;;;;;0.57;77.23;102539.03;5069884;28;20502;-75
2024/01/30 08:48:07;;;;;;;10.80;2.67;;;;;;;0.57;77.52;102547.66;5068094;28;20148;-76
2024/01/30 08:50:34;;;;;;;10.85;2.92;;;;;;;0.55;77.03;102544.09;5069801;28;20056;-76
2024/01/30 08:53:01;;;;;;;5.13;2.22;;;;;;;0.58;77.34;102546.81;5064986;28;20077;-76
2024/01/30 08:55:29;;;;;;;11.85;2.70;;;;;;;0.60;77.17;102553.75;5069281;28;20494;-76
2024/01/30 08:57:57;;;;;;;16.33;3.95;;;;;;;0.58;76.94;102551.97;5065700;28;20075;-76
2024/01/30 09:00:24;;;;;;;5.50;2.75;;;;;;;0.62;77.37;102555.56;5067968;28;20499;-76
2024/01/30 09:02:51;;;;;;;9.23;2.38;;;;;;;0.64;77.18;102555.66;5065278;28;20076;-76
2024/01/30 09:05:18;;;;;;;12.30;3.47;;;;;;;0.56;77.05;102547.56;5067255;28;20064;-76
2024/01/30 09:07:45;;;;;;;9.30;2.90;;;;;;;0.65;77.70;102557.41;5069320;28;20087;-76
2024/01/30 09:10:12;;;;;;;9.50;2.38;;;;;;;0.65;77.08;102565.13;5068267;28;20076;-78
2024/01/30 09:12:39;;;;;;;16.65;2.97;;;;;;;0.67;77.17;102564.41;5069464;28;20624;-77
2024/01/30 09:15:09;;;;;;;10.15;2.80;;;;;;;0.67;77.65;102566.09;5068869;28;20044;-76
2024/01/30 09:17:35;;;;;;;12.80;3.42;;;;;;;0.70;77.42;102558.50;5070182;28;20076;-76
2024/01/30 09:20:03;;;;;;;11.90;2.88;;;;;;;0.72;77.35;102559.47;5067417;28;20645;-76
2024/01/30 09:22:30;;;;;;;10.98;2.75;;;;;;;0.74;77.55;102560.44;5067422;28;20121;-76
2024/01/30 09:24:56;;;;;;;10.68;2.88;;;;;;;0.75;76.98;102564.75;5065860;28;20080;-76
2024/01/30 09:27:23;;;;;;;9.25;3.25;;;;;;;0.77;77.69;102551.16;5069795;28;20109;-76
2024/01/30 09:29:50;;;;;;;13.63;3.05;;;;;;;0.78;77.66;102552.03;5066626;28;20565;-76
2024/01/30 09:32:19;;;;;;;13.82;3.25;;;;;;;0.79;76.92;102548.63;5065127;28;20076;-76
2024/01/30 09:34:46;;;;;;;11.10;3.35;;;;;;;0.81;77.38;102547.00;5067259;28;20090;-76
2024/01/30 09:37:15;;;;;;;13.32;3.88;;;;;;;0.83;77.67;102545.41;5068503;28;20780;-76
2024/01/30 09:39:42;;;;;;;14.95;3.10;;;;;;;0.83;77.22;102545.41;5068612;28;20044;-77
2024/01/30 09:42:19;;;;;;;12.05;3.17;;;;;;;0.86;77.15;102542.94;5066628;28;20554;-77
2024/01/30 09:44:48;;;;;;;10.18;2.95;;;;;;;0.88;77.57;102546.50;5068168;28;20482;-77
2024/01/30 09:47:18;;;;;;;15.52;3.90;;;;;;;0.88;77.10;102538.75;5068960;28;20502;-77
2024/01/30 09:49:45;;;;;;;10.32;3.58;;;;;;;0.89;77.26;102537.94;5066747;28;20091;-74
2024/01/30 09:52:12;;;;;;;11.60;3.17;;;;;;;0.87;77.27;102523.22;5067717;28;20574;-74
2024/01/30 09:54:40;;;;;;;7.28;3.05;;;;;;;0.92;77.38;102527.75;5068280;28;20494;-74
2024/01/30 09:57:07;;;;;;;8.77;3.38;;;;;;;0.95;77.60;102535.63;5065883;28;20076;-76
2024/01/30 09:59:34;;;;;;;8.20;3.03;;;;;;;0.96;77.07;102529.69;5066817;28;20163;-74
2024/01/30 10:02:04;;;;;;;8.15;2.30;;;;;;;0.98;76.87;102529.75;5066853;28;20510;-74
2024/01/30 10:04:32;;;;;;;8.30;2.65;;;;;;;0.98;76.96;102519.44;5064537;28;20094;-74
2024/01/30 10:07:02;;;;;;;12.43;3.20;;;;;;;0.95;77.42;102512.44;5062986;28;20131;-75
2024/01/30 10:09:30;;;;;;;7.15;2.95;;;;;;;0.99;77.31;102516.03;5071254;28;20080;-75
2024/01/30 10:11:58;;;;;;;16.83;3.50;;;;;;;1.01;76.84;102510.13;5070650;28;20127;-74
2024/01/30 10:14:25;;;;;;;10.98;3.47;;;;;;;1.02;77.05;102504.19;5072669;28;20123;-75
2024/01/30 10:16:52;;;;;;;15.00;3.88;;;;;;;1.03;76.96;102508.50;5069692;28;20506;-75
2024/01/30 10:19:19;;;;;;;8.75;3.67;;;;;;;1.02;76.88;102503.28;5055388;28;20110;-74
2024/01/30 10:21:48;;;;;;;10.25;3.20;;;;;;;1.06;77.29;102505.19;5049525;28;20068;-74
2024/01/30 10:24:16;;;;;;;11.18;3.47;;;;;;;1.08;77.09;102500.09;5049798;28;20084;-77
2024/01/30 10:26:45;;;;;;;14.30;3.95;;;;;;;1.08;77.17;102501.00;5049672;28;20051;-75
2024/01/30 10:29:12;;;;;;;9.18;3.38;;;;;;;1.10;77.50;102508.78;5049032;28;20095;-74
2024/01/30 10:31:39;;;;;;;11.10;3.15;;;;;;;1.12;77.14;102502.88;5049987;28;20462;-74
2024/01/30 10:34:06;;;;;;;8.80;3.78;;;;;;;1.14;77.24;102500.38;5051338;28;20045;-74
2024/01/30 10:36:40;;;;;;;8.82;3.03;;;;;;;1.10;77.26;102489.03;5049688;28;20065;-74
2024/01/30 10:39:10;;;;;;;9.35;3.70;;;;;;;1.18;77.33;102491.94;5050331;28;20128;-74
2024/01/30 10:41:44;;;;;;;11.52;3.22;;;;;;;1.20;77.43;102490.31;5044784;28;20129;-74
2024/01/30 10:44:11;;;;;;;9.63;3.78;;;;;;;1.20;77.61;102487.75;5050477;28;20080;-75
2024/01/30 10:46:40;;;;;;;13.38;3.83;;;;;;;1.23;77.66;102488.75;5049382;28;20186;-74
2024/01/30 10:49:07;;;;;;;13.02;3.42;;;;;;;1.26;77.23;102495.75;5052592;28;20064;-79
2024/01/30 10:51:36;;;;;;;9.10;3.35;;;;;;;1.25;77.67;102487.13;5054235;28;20141;-79
2024/01/30 10:54:06;;;;;;;7.55;2.75;;;;;;;1.28;77.18;102483.81;5055016;28;20052;-79
2024/01/30 10:56:36;;;;;;;9.23;3.42;;;;;;;1.25;77.44;102470.78;5054178;28;20669;-79
2024/01/30 10:59:03;;;;;;;10.48;3.53;;;;;;;1.31;77.40;102480.47;5050521;28;20499;-84
2024/01/30 11:01:31;;;;;;;14.15;3.72;;;;;;;1.33;77.11;102471.09;5046485;28;20048;-84
2024/01/30 11:03:58;;;;;;;8.85;3.55;;;;;;;1.33;77.54;102466.81;5054908;28;20076;-83
2024/01/30 11:06:26;;;;;;;13.82;3.92;;;;;;;1.36;77.20;102468.63;5055449;28;20057;-84
2024/01/30 11:09:08;;;;;;;14.45;4.28;;;;;;;1.37;77.30;102449.78;5052856;28;20080;-84
2024/01/30 11:11:50;;;;;;;15.80;4.47;;;;;;;1.38;77.55;102439.53;5041815;28;20095;-84
2024/01/30 11:14:17;;;;;;;14.07;4.82;;;;;;;1.40;77.31;102442.19;5052802;28;20076;-84
2024/01/30 11:16:44;;;;;;;12.55;4.18;;;;;;;1.41;77.36;102441.34;5049597;28;20488;-84
2024/01/30 11:19:12;;;;;;;23.60;3.78;;;;;;;1.37;77.50;102437.78;5054069;28;20087;-84
2024/01/30 11:21:43;;;;;;;20.85;4.38;;;;;;;1.45;77.82;102448.41;5047721;28;20506;-83
2024/01/30 11:24:09;;;;;;;9.35;3.60;;;;;;;1.46;77.81;102435.56;5049875;28;20083;-84
2024/01/30 11:26:37;;;;;;;11.43;3.15;;;;;;;1.49;77.91;102439.97;5054248;28;20498;-84
2024/01/30 11:29:09;;;;;;;10.02;3.72;;;;;;;1.50;78.05;102427.94;5052763;28;20045;-83